createdAt,value
2022-08-03T00:00:27.059Z,0.20
2022-08-03T00:02:54.098Z,0.13
2022-08-03T00:05:21.163Z,0.28
2022-08-03T00:07:49.443Z,0.28
2022-08-03T00:10:17.344Z,0.30
2022-08-03T00:12:44.179Z,0.30
2022-08-03T00:15:16.502Z,0.20
2022-08-03T00:17:52.959Z,0.30
2022-08-03T00:20:24.999Z,0.30
2022-08-03T00:22:51.841Z,0.38
2022-08-03T00:25:19.222Z,0.30
2022-08-03T00:27:46.159Z,0.38
2022-08-03T00:30:16.987Z,0.40
2022-08-03T00:32:45.322Z,0.35
2022-08-03T00:35:27.393Z,0.30
2022-08-03T00:38:00.149Z,0.40
2022-08-03T00:40:27.374Z,0.20
2022-08-03T00:42:58.206Z,0.45
2022-08-03T00:45:30.871Z,0.35
2022-08-03T00:47:59.713Z,0.30
2022-08-03T00:50:29.443Z,0.30
2022-08-03T00:52:59.496Z,0.38
2022-08-03T00:55:27.006Z,0.40
2022-08-03T00:57:54.193Z,0.40
2022-08-03T01:00:24.387Z,0.35
2022-08-03T01:02:52.162Z,0.30
2022-08-03T01:05:20.903Z,0.30
2022-08-03T01:08:08.615Z,0.43
2022-08-03T01:11:17.304Z,0.30
2022-08-03T01:14:02.068Z,0.47
2022-08-03T01:16:37.559Z,0.57
2022-08-03T01:19:44.394Z,0.30
2022-08-03T01:22:26.228Z,0.40
2022-08-03T01:25:10.504Z,0.32
2022-08-03T01:28:16.217Z,0.30
2022-08-03T01:30:45.985Z,0.30
2022-08-03T01:33:18.024Z,0.30
2022-08-03T01:35:58.869Z,0.30
2022-08-03T01:38:32.163Z,0.30
2022-08-03T01:41:09.112Z,0.40
2022-08-03T01:44:28.093Z,0.23
2022-08-03T01:46:29.607Z,0.30
2022-08-03T01:48:57.302Z,0.40
2022-08-03T01:51:56.116Z,0.35
2022-08-03T01:54:13.730Z,0.40
2022-08-03T01:56:43.632Z,0.33
2022-08-03T01:59:12.665Z,0.30
2022-08-03T02:02:15.952Z,0.30
2022-08-03T02:04:29.382Z,0.40
2022-08-03T02:07:02.304Z,0.30
2022-08-03T02:09:31.480Z,0.50
2022-08-03T02:11:59.242Z,0.30
2022-08-03T02:14:28.130Z,0.30
2022-08-03T02:16:57.251Z,0.30
2022-08-03T02:19:26.645Z,0.40
2022-08-03T02:21:57.134Z,0.30
2022-08-03T02:24:29.236Z,0.40
2022-08-03T02:26:57.942Z,0.20
2022-08-03T02:29:39.824Z,0.40
2022-08-03T02:32:14.689Z,0.43
2022-08-03T02:34:46.692Z,0.47
2022-08-03T02:37:15.045Z,0.70
2022-08-03T02:39:43.977Z,0.50
2022-08-03T02:42:14.261Z,0.40
2022-08-03T02:44:44.576Z,0.50
2022-08-03T02:47:13.354Z,0.40
2022-08-03T02:49:51.504Z,0.40
2022-08-03T02:52:26.905Z,0.50
2022-08-03T02:54:59.175Z,0.45
2022-08-03T02:57:30.054Z,0.50
2022-08-03T02:59:59.015Z,0.50
2022-08-03T03:02:27.467Z,0.35
2022-08-03T03:05:53.401Z,0.50
2022-08-03T03:07:51.675Z,0.60
2022-08-03T03:10:22.042Z,0.50
2022-08-03T03:12:53.296Z,0.40
2022-08-03T03:15:20.520Z,0.50
2022-08-03T03:17:50.379Z,0.55
2022-08-03T03:20:29.644Z,0.50
2022-08-03T03:23:00.349Z,0.50
2022-08-03T03:25:30.713Z,0.50
2022-08-03T03:27:59.392Z,0.55
2022-08-03T03:30:27.144Z,0.60
2022-08-03T03:32:54.653Z,0.43
2022-08-03T03:35:22.274Z,0.40
2022-08-03T03:37:49.134Z,0.70
2022-08-03T03:40:16.021Z,0.50
2022-08-03T03:42:43.127Z,0.65
2022-08-03T03:45:11.352Z,0.60
2022-08-03T03:47:38.235Z,0.50
2022-08-03T03:50:06.658Z,0.70
2022-08-03T03:52:34.597Z,0.60
2022-08-03T03:55:01.927Z,0.80
2022-08-03T03:57:29.789Z,0.70
2022-08-03T03:59:56.765Z,0.70
2022-08-03T04:02:24.023Z,0.60
2022-08-03T04:04:50.849Z,0.57
2022-08-03T04:07:19.049Z,0.75
2022-08-03T04:09:47.975Z,0.70
2022-08-03T04:12:18.202Z,0.60
2022-08-03T04:14:48.948Z,0.60
2022-08-03T04:17:17.229Z,0.40
2022-08-03T04:19:49.836Z,0.40
2022-08-03T04:22:19.837Z,0.55
2022-08-03T04:25:01.407Z,0.60
2022-08-03T04:27:34.387Z,0.40
2022-08-03T04:30:03.860Z,0.55
2022-08-03T04:32:31.081Z,0.50
2022-08-03T04:34:58.173Z,0.55
2022-08-03T04:37:30.101Z,0.88
2022-08-03T04:40:01.960Z,0.80
2022-08-03T04:42:31.633Z,0.60
2022-08-03T04:45:01.379Z,0.63
2022-08-03T04:47:32.377Z,0.75
2022-08-03T04:50:01.851Z,0.52
2022-08-03T04:52:28.773Z,0.60
2022-08-03T04:54:55.567Z,0.70
2022-08-03T04:57:23.661Z,0.63
2022-08-03T05:00:01.260Z,0.80
2022-08-03T05:02:29.345Z,0.80
2022-08-03T05:04:56.088Z,0.80
2022-08-03T05:07:24.792Z,0.93
2022-08-03T05:10:01.599Z,0.85
2022-08-03T05:12:32.830Z,0.70
2022-08-03T05:15:01.679Z,0.90
2022-08-03T05:17:28.815Z,0.60
2022-08-03T05:19:56.661Z,0.90
2022-08-03T05:22:24.047Z,0.90
2022-08-03T05:24:50.921Z,0.77
2022-08-03T05:27:17.981Z,1.10
2022-08-03T05:29:51.478Z,0.93
2022-08-03T05:32:19.033Z,1.02
2022-08-03T05:34:46.034Z,0.77
2022-08-03T05:37:13.109Z,0.95
2022-08-03T05:39:39.942Z,0.98
2022-08-03T05:42:06.945Z,0.77
2022-08-03T05:44:33.744Z,0.77
2022-08-03T05:47:00.664Z,0.80
2022-08-03T05:49:27.640Z,0.80
2022-08-03T05:52:01.837Z,0.80
2022-08-03T05:54:56.269Z,0.67
2022-08-03T05:57:25.643Z,0.90
2022-08-03T05:59:58.167Z,1.10
2022-08-03T06:02:26.893Z,0.93
2022-08-03T06:04:53.993Z,0.98
2022-08-03T06:07:21.264Z,1.00
2022-08-03T06:10:34.041Z,1.42
2022-08-03T06:12:35.069Z,1.05
2022-08-03T06:15:03.397Z,1.00
2022-08-03T06:17:30.284Z,0.80
2022-08-03T06:20:05.991Z,1.00
2022-08-03T06:22:32.810Z,0.90
2022-08-03T06:25:03.471Z,1.08
2022-08-03T06:27:36.989Z,0.80
2022-08-03T06:30:05.699Z,0.65
2022-08-03T06:32:32.772Z,0.57
2022-08-03T06:35:00.614Z,0.57
2022-08-03T06:37:27.325Z,0.50
2022-08-03T06:39:54.696Z,0.40
2022-08-03T06:42:22.675Z,0.50
2022-08-03T06:44:50.027Z,0.50
2022-08-03T06:47:17.198Z,0.50
2022-08-03T06:49:44.170Z,0.88
2022-08-03T06:52:37.794Z,0.82
2022-08-03T06:55:06.700Z,0.60
2022-08-03T06:57:33.457Z,0.60
2022-08-03T07:00:09.188Z,0.50
2022-08-03T07:02:39.798Z,0.70
2022-08-03T07:05:08.158Z,0.80
2022-08-03T07:07:34.970Z,1.00
2022-08-03T07:10:02.234Z,0.83
2022-08-03T07:12:30.339Z,0.85
2022-08-03T07:15:01.360Z,1.30
2022-08-03T07:17:32.975Z,0.80
2022-08-03T07:20:01.270Z,0.93
2022-08-03T07:22:28.364Z,0.90
2022-08-03T07:24:55.417Z,0.80
2022-08-03T07:27:23.560Z,1.10
2022-08-03T07:29:50.322Z,0.90
2022-08-03T07:32:17.456Z,0.90
2022-08-03T07:34:44.591Z,0.93
2022-08-03T07:37:11.509Z,0.95
2022-08-03T07:39:38.301Z,1.00
2022-08-03T07:42:05.184Z,0.90
2022-08-03T07:44:31.945Z,1.00
2022-08-03T07:46:58.832Z,0.87
2022-08-03T07:49:30.762Z,1.10
2022-08-03T07:51:57.829Z,0.77
2022-08-03T07:54:24.623Z,1.10
2022-08-03T07:56:51.504Z,1.00
2022-08-03T07:59:18.276Z,0.80
2022-08-03T08:01:45.173Z,0.95
2022-08-03T08:04:11.976Z,1.17
2022-08-03T08:06:38.963Z,1.15
2022-08-03T08:09:06.235Z,1.10
2022-08-03T08:11:34.832Z,1.20
2022-08-03T08:14:05.587Z,1.00
2022-08-03T08:16:32.361Z,1.20
2022-08-03T08:18:59.238Z,1.10
2022-08-03T08:21:25.996Z,1.10
2022-08-03T08:24:13.415Z,1.10
2022-08-03T08:26:46.741Z,1.10
2022-08-03T08:29:13.587Z,0.80
2022-08-03T08:31:40.451Z,0.75
2022-08-03T08:34:07.307Z,0.80
2022-08-03T08:36:35.809Z,1.00
2022-08-03T08:39:02.640Z,0.98
2022-08-03T08:41:32.086Z,0.70
2022-08-03T08:44:00.241Z,0.73
2022-08-03T08:46:27.905Z,0.90
2022-08-03T08:48:56.036Z,0.90
2022-08-03T08:51:51.024Z,0.73
2022-08-03T08:54:21.134Z,1.08
2022-08-03T08:56:50.844Z,1.08
2022-08-03T08:59:18.504Z,1.00
2022-08-03T09:01:45.415Z,1.13
2022-08-03T09:04:13.614Z,1.05
2022-08-03T09:06:40.432Z,0.90
2022-08-03T09:09:07.257Z,0.82
2022-08-03T09:11:51.545Z,0.98
2022-08-03T09:14:36.881Z,0.90
2022-08-03T09:17:10.207Z,1.00
2022-08-03T09:20:05.489Z,0.98
2022-08-03T09:22:32.316Z,0.75
2022-08-03T09:25:23.449Z,1.05
2022-08-03T09:27:51.520Z,0.80
2022-08-03T09:30:34.549Z,1.17
2022-08-03T09:33:08.123Z,1.00
2022-08-03T09:35:54.980Z,1.10
2022-08-03T09:38:22.245Z,1.20
2022-08-03T09:40:49.089Z,0.83
2022-08-03T09:43:17.227Z,0.80
2022-08-03T09:45:44.969Z,1.10
2022-08-03T09:48:28.591Z,1.10
2022-08-03T09:51:13.180Z,0.95
2022-08-03T09:53:58.438Z,0.80
2022-08-03T09:56:48.042Z,0.70
2022-08-03T09:59:26.787Z,1.15
2022-08-03T10:01:55.541Z,0.93
2022-08-03T10:04:23.183Z,0.80
2022-08-03T10:07:08.445Z,0.83
2022-08-03T10:09:38.622Z,0.80
2022-08-03T10:12:10.864Z,1.00
2022-08-03T10:14:42.238Z,0.80
2022-08-03T10:17:12.407Z,0.88
2022-08-03T10:19:39.805Z,1.00
2022-08-03T10:22:15.664Z,0.93
2022-08-03T10:25:16.457Z,0.80
2022-08-03T10:27:47.507Z,0.90
2022-08-03T10:30:14.666Z,0.93
2022-08-03T10:32:55.359Z,1.03
2022-08-03T10:35:24.011Z,0.80
2022-08-03T10:38:03.378Z,1.10
2022-08-03T10:40:48.080Z,1.10
2022-08-03T10:43:26.032Z,0.98
2022-08-03T10:45:53.729Z,0.90
2022-08-03T10:48:21.819Z,0.90
2022-08-03T10:50:50.229Z,0.70
2022-08-03T10:53:20.020Z,0.85
2022-08-03T10:55:46.971Z,0.75
2022-08-03T10:58:13.841Z,0.80
2022-08-03T11:00:57.887Z,0.90
2022-08-03T11:03:24.720Z,1.10
2022-08-03T11:05:51.543Z,0.65
2022-08-03T11:08:29.937Z,1.10
2022-08-03T11:11:03.105Z,1.10
2022-08-03T11:13:31.520Z,0.80
2022-08-03T11:16:03.011Z,0.77
2022-08-03T11:18:31.913Z,0.80
2022-08-03T11:21:00.510Z,0.90
2022-08-03T11:24:05.421Z,0.73
2022-08-03T11:26:34.699Z,0.80
2022-08-03T11:29:27.693Z,0.80
2022-08-03T11:31:54.593Z,0.73
2022-08-03T11:34:21.395Z,0.70
2022-08-03T11:37:21.437Z,0.90
2022-08-03T11:39:51.477Z,1.40
2022-08-03T11:42:24.315Z,0.80
2022-08-03T11:44:52.936Z,0.90
2022-08-03T11:47:22.032Z,0.88
2022-08-03T11:49:50.530Z,0.80
2022-08-03T11:52:18.837Z,0.75
2022-08-03T11:54:50.882Z,0.90
2022-08-03T11:59:01.669Z,0.93
2022-08-03T12:00:25.865Z,1.30
2022-08-03T12:03:01.780Z,0.80
2022-08-03T12:05:39.125Z,0.93
2022-08-03T12:08:07.094Z,0.95
2022-08-03T12:10:35.528Z,0.65
2022-08-03T12:13:04.291Z,1.25
2022-08-03T12:15:33.000Z,0.90
2022-08-03T12:18:00.750Z,1.05
2022-08-03T12:20:34.736Z,1.00
2022-08-03T12:23:06.464Z,1.10
2022-08-03T12:25:39.096Z,1.00
2022-08-03T12:28:36.930Z,1.03
2022-08-03T12:31:09.147Z,1.00
2022-08-03T12:34:04.763Z,0.82
2022-08-03T12:36:34.232Z,1.10
2022-08-03T12:39:05.025Z,1.10
2022-08-03T12:41:34.132Z,0.90
2022-08-03T12:44:03.444Z,1.00
2022-08-03T12:46:35.678Z,0.90
2022-08-03T12:49:10.713Z,1.25
2022-08-03T12:51:58.425Z,0.90
2022-08-03T12:54:29.754Z,1.00
2022-08-03T12:57:23.448Z,0.90
2022-08-03T12:59:53.109Z,0.90
2022-08-03T13:02:26.478Z,1.20
2022-08-03T13:04:55.371Z,1.10
2022-08-03T13:07:23.048Z,1.00
2022-08-03T13:09:52.565Z,0.95
2022-08-03T13:12:21.852Z,0.98
2022-08-03T13:14:51.200Z,0.90
2022-08-03T13:17:19.117Z,1.33
2022-08-03T13:19:47.413Z,1.23
2022-08-03T13:22:25.829Z,1.05
2022-08-03T13:24:54.681Z,1.05
2022-08-03T13:28:02.292Z,1.23
2022-08-03T13:30:09.267Z,1.23
2022-08-03T13:32:36.610Z,1.20
2022-08-03T13:35:04.946Z,1.27
2022-08-03T13:37:32.093Z,1.10
2022-08-03T13:40:02.746Z,1.23
2022-08-03T13:42:34.193Z,1.00
2022-08-03T13:45:01.777Z,1.13
2022-08-03T13:47:29.212Z,1.30
2022-08-03T13:50:00.403Z,1.00
2022-08-03T13:52:33.891Z,1.45
2022-08-03T13:55:04.765Z,1.30
2022-08-03T13:58:03.180Z,1.57
2022-08-03T14:00:27.532Z,1.40
2022-08-03T14:03:02.985Z,1.25
2022-08-03T14:05:32.387Z,1.30
2022-08-03T14:08:04.008Z,1.40
2022-08-03T14:10:31.498Z,1.10
2022-08-03T14:12:58.255Z,1.33
2022-08-03T14:15:25.054Z,1.23
2022-08-03T14:17:51.801Z,1.42
2022-08-03T14:20:37.512Z,1.20
2022-08-03T14:23:05.549Z,0.97
2022-08-03T14:25:44.541Z,1.60
2022-08-03T14:28:19.068Z,1.38
2022-08-03T14:30:45.971Z,1.40
2022-08-03T14:33:12.810Z,1.45
2022-08-03T14:35:39.902Z,1.10
2022-08-03T14:38:07.141Z,1.23
2022-08-03T14:40:34.003Z,1.23
2022-08-03T14:43:00.754Z,1.33
2022-08-03T14:45:27.673Z,1.08
2022-08-03T14:50:29.530Z,1.00
2022-08-03T14:50:46.767Z,1.20
2022-08-03T14:53:17.257Z,1.10
2022-08-03T14:55:49.726Z,1.15
2022-08-03T14:58:20.997Z,1.30
2022-08-03T15:00:49.583Z,1.27
2022-08-03T15:03:17.875Z,1.63
2022-08-03T15:05:45.098Z,1.27
2022-08-03T15:08:12.406Z,1.13
2022-08-03T15:10:44.144Z,1.17
2022-08-03T15:13:13.147Z,1.27
2022-08-03T15:15:41.067Z,1.40
2022-08-03T15:18:08.015Z,1.70
2022-08-03T15:20:50.776Z,1.30
2022-08-03T15:23:18.399Z,1.10
2022-08-03T15:26:31.864Z,1.10
2022-08-03T15:28:32.919Z,1.20
2022-08-03T15:31:00.176Z,1.48
2022-08-03T15:33:26.971Z,1.45
2022-08-03T15:35:54.293Z,1.52
2022-08-03T15:38:21.200Z,1.60
2022-08-03T15:40:49.262Z,1.25
2022-08-03T15:43:16.856Z,1.40
2022-08-03T15:45:43.621Z,1.30
2022-08-03T15:48:10.473Z,0.98
2022-08-03T15:50:37.309Z,1.30
2022-08-03T15:53:04.773Z,1.42
2022-08-03T15:55:31.866Z,1.20
2022-08-03T15:59:09.104Z,1.20
2022-08-03T16:00:45.816Z,1.50
2022-08-03T16:03:12.565Z,1.00
2022-08-03T16:05:39.500Z,1.00
2022-08-03T16:08:11.639Z,1.30
2022-08-03T16:10:41.051Z,1.40
2022-08-03T16:13:08.275Z,1.02
2022-08-03T16:15:38.674Z,1.40
2022-08-03T16:18:08.726Z,1.30
2022-08-03T16:20:35.740Z,1.10
2022-08-03T16:23:10.834Z,1.20
2022-08-03T16:25:40.480Z,1.30
2022-08-03T16:28:13.755Z,1.23
2022-08-03T16:30:42.928Z,1.25
2022-08-03T16:33:11.358Z,1.02
2022-08-03T16:35:44.109Z,1.00
2022-08-03T16:38:15.230Z,1.10
2022-08-03T16:40:45.124Z,1.00
2022-08-03T16:43:17.877Z,0.98
2022-08-03T16:45:47.495Z,1.00
2022-08-03T16:48:15.158Z,1.13
2022-08-03T16:50:42.291Z,1.30
2022-08-03T16:53:16.248Z,1.50
2022-08-03T16:55:51.989Z,1.30
2022-08-03T16:58:34.801Z,0.95
2022-08-03T17:01:21.559Z,1.10
2022-08-03T17:04:01.792Z,1.30
2022-08-03T17:06:35.622Z,1.10
2022-08-03T17:09:09.795Z,1.10
2022-08-03T17:11:46.400Z,1.10
2022-08-03T17:14:16.729Z,1.95
2022-08-03T17:16:52.206Z,2.10
2022-08-03T17:19:24.161Z,1.90
2022-08-03T17:22:04.933Z,1.48
2022-08-03T17:24:35.082Z,1.45
2022-08-03T17:27:08.592Z,1.30
2022-08-03T17:29:45.244Z,1.40
2022-08-03T17:32:18.075Z,1.17
2022-08-03T17:34:48.628Z,1.10
2022-08-03T17:37:50.230Z,1.20
2022-08-03T17:40:04.327Z,1.05
2022-08-03T17:42:33.037Z,1.60
2022-08-03T17:45:04.026Z,1.13
2022-08-03T17:47:41.847Z,1.30
2022-08-03T17:50:24.436Z,1.60
2022-08-03T17:53:23.570Z,1.38
2022-08-03T17:56:04.851Z,1.23
2022-08-03T17:58:52.421Z,1.00
2022-08-03T18:02:01.956Z,1.10
2022-08-03T18:04:12.697Z,2.00
2022-08-03T18:06:55.716Z,1.80
2022-08-03T18:10:06.842Z,1.45
2022-08-03T18:12:27.927Z,1.30
2022-08-03T18:15:01.597Z,1.30
2022-08-03T18:18:01.816Z,0.90
2022-08-03T18:20:34.813Z,0.90
2022-08-03T18:23:10.332Z,0.90
2022-08-03T18:25:42.322Z,1.10
2022-08-03T18:28:18.505Z,1.00
2022-08-03T18:30:53.403Z,1.20
2022-08-03T18:34:18.465Z,1.20
2022-08-03T18:36:17.754Z,0.80
2022-08-03T18:38:47.318Z,1.00
2022-08-03T18:41:20.569Z,1.00
2022-08-03T18:44:06.922Z,1.10
2022-08-03T18:47:21.509Z,0.95
2022-08-03T18:50:00.996Z,1.10
2022-08-03T18:52:54.632Z,0.90
2022-08-03T18:55:33.623Z,0.82
2022-08-03T18:58:18.019Z,1.00
2022-08-03T19:00:56.957Z,1.00
2022-08-03T19:03:25.442Z,1.50
2022-08-03T19:06:19.943Z,1.30
2022-08-03T19:08:55.093Z,1.52
2022-08-03T19:12:14.249Z,1.30
2022-08-03T19:14:28.748Z,1.40
2022-08-03T19:17:07.541Z,1.58
2022-08-03T19:19:44.524Z,1.00
2022-08-03T19:22:16.214Z,1.25
2022-08-03T19:24:48.530Z,0.90
2022-08-03T19:27:16.487Z,1.02
2022-08-03T19:29:58.824Z,1.20
2022-08-03T19:32:29.645Z,1.00
2022-08-03T19:34:59.591Z,0.82
2022-08-03T19:37:38.135Z,1.00
2022-08-03T19:43:09.281Z,1.00
2022-08-03T19:46:05.958Z,1.00
2022-08-03T19:48:30.163Z,0.90
2022-08-03T19:50:58.484Z,0.90
2022-08-03T19:53:35.378Z,1.00
2022-08-03T19:56:06.825Z,1.20
2022-08-03T19:58:35.841Z,0.80
2022-08-03T20:01:19.254Z,1.00
2022-08-03T20:03:50.053Z,0.90
2022-08-03T20:06:20.595Z,0.95
2022-08-03T20:08:51.641Z,0.95
2022-08-03T20:11:43.719Z,1.00
2022-08-03T20:14:13.351Z,1.40
2022-08-03T20:16:54.605Z,1.17
2022-08-03T20:19:23.645Z,1.40
2022-08-03T20:21:52.623Z,1.35
2022-08-03T20:24:27.148Z,1.30
2022-08-03T20:26:56.703Z,1.52
2022-08-03T20:30:05.107Z,1.55
2022-08-03T20:32:28.178Z,1.90
2022-08-03T20:34:54.940Z,1.90
2022-08-03T20:37:22.609Z,2.03
2022-08-03T20:39:49.807Z,1.80
2022-08-03T20:42:21.777Z,1.92
2022-08-03T20:45:13.005Z,1.85
2022-08-03T20:50:29.702Z,1.90
2022-08-03T20:52:56.871Z,2.10
2022-08-03T20:55:48.016Z,2.00
2022-08-03T20:58:11.359Z,1.70
2022-08-03T21:00:41.015Z,1.77
2022-08-03T21:03:08.898Z,2.13
2022-08-03T21:05:51.237Z,1.65
2022-08-03T21:08:21.781Z,1.77
2022-08-03T21:10:50.195Z,1.75
2022-08-03T21:13:07.506Z,2.22
2022-08-03T21:13:11.192Z,1.00
2022-08-03T21:13:30.534Z,1.80
2022-08-03T21:16:06.164Z,1.60
2022-08-03T21:18:45.544Z,1.40
2022-08-03T21:21:15.691Z,1.48
2022-08-03T21:23:47.860Z,1.25
2022-08-03T21:26:18.621Z,1.30
2022-08-03T21:28:48.020Z,0.90
2022-08-03T21:31:24.624Z,1.38
2022-08-03T21:33:55.538Z,1.23
2022-08-03T21:36:22.419Z,1.23
2022-08-03T21:38:55.873Z,1.40
2022-08-03T21:41:28.208Z,1.40
2022-08-03T21:43:55.075Z,1.13
2022-08-03T21:46:23.382Z,1.27
2022-08-03T21:50:04.347Z,1.50
2022-08-03T21:51:49.678Z,1.20
2022-08-03T21:54:17.831Z,1.30
2022-08-03T21:56:48.293Z,1.40
2022-08-03T21:59:20.540Z,1.33
2022-08-03T22:01:51.286Z,1.40
2022-08-03T22:04:37.238Z,1.33
2022-08-03T22:07:08.711Z,1.17
2022-08-03T22:09:36.350Z,1.30
2022-08-03T22:12:03.772Z,1.58
2022-08-03T22:14:33.248Z,1.27
2022-08-03T22:17:01.401Z,1.20
2022-08-03T22:19:33.508Z,1.00
2022-08-03T22:22:02.835Z,1.08
2022-08-03T22:24:31.922Z,1.33
2022-08-03T22:27:02.254Z,1.10
2022-08-03T22:29:32.535Z,1.00
2022-08-03T22:32:00.308Z,1.40
2022-08-03T22:34:29.596Z,1.00
2022-08-03T22:37:02.369Z,1.10
2022-08-03T22:39:30.253Z,1.10
2022-08-03T22:41:58.339Z,0.88
2022-08-03T22:44:26.708Z,0.60
2022-08-03T22:46:53.508Z,0.70
2022-08-03T22:49:22.238Z,1.00
2022-08-03T22:51:53.551Z,1.00
2022-08-03T22:54:20.400Z,0.90
2022-08-03T22:56:47.614Z,0.93
2022-08-03T22:59:40.935Z,1.10
2022-08-03T23:02:15.054Z,1.10
2022-08-03T23:04:51.750Z,1.02
2022-08-03T23:07:30.239Z,1.20
2022-08-03T23:09:58.096Z,0.90
2022-08-03T23:12:25.470Z,1.00
2022-08-03T23:14:55.378Z,1.20
2022-08-03T23:17:24.193Z,0.85
2022-08-03T23:19:52.505Z,0.95
2022-08-03T23:22:30.446Z,0.80
2022-08-03T23:24:59.656Z,1.00
2022-08-03T23:27:27.982Z,0.80
2022-08-03T23:29:58.501Z,1.00
2022-08-03T23:32:27.125Z,1.10
2022-08-03T23:35:00.142Z,1.10
2022-08-03T23:37:27.625Z,0.85
2022-08-03T23:39:57.116Z,0.70
2022-08-03T23:42:23.938Z,0.70
2022-08-03T23:44:54.706Z,0.80
2022-08-03T23:47:21.600Z,0.53
2022-08-03T23:49:48.993Z,0.38
2022-08-03T23:52:28.528Z,0.60
2022-08-03T23:54:58.309Z,0.60
2022-08-03T23:57:43.375Z,0.80
